Anoka, MN

10:17 AM CST on January 25, 2015 (GMT -0600)
Central Park - Trott Brook | Change Station
CLOSE
Current Station
Personal Weather Station
Location: Ramsey, MN
Elevation: 882 ft
Nearby Weather Stations

Elev 882 ft 45.27 °N, 93.45 °W | Updated 3 seconds ago

Overcast
Overcast
21.9 °F
Feels Like 16 °F
N
4.7
Wind Variable Wind from SE
Gusts 5.8 mph

Today
High -- | Low -- °F
--% Chance of Precip.
Yesterday
High -- | Low -- °F
Precip. -- in
7:41 AM 5:10 PM
Waxing Crescent, 33% visible
Pressure 30.00 in
Visibility 10.0 miles
Clouds Scattered Clouds 11000 ft
Mostly Cloudy 20000 ft
Windchill 16 °F
Dew Point 15 °F
Humidity 75%
Rainfall 0.00 in
Snow Depth Not available.
UV 1 out of 12
Pollen .10 out of 12
Air Quality Not available.
Flu Activity Not available.
METAR KANE 251545Z 05010G15KT 10SM SCT110 BKN200 M06/M11 A3000

More Conditions Fewer Conditions

Pressure 30.00 in
Visibility 10.0 miles
Clouds Scattered Clouds 11000 ft
Mostly Cloudy 20000 ft
Windchill 16 °F
Dew Point 15 °F
Humidity 75%
Rainfall 0.00 in
Snow Depth Not available.
UV 1 out of 12
Pollen .10 out of 12
Air Quality Not available.
Flu Activity Not available.
METAR KANE 251545Z 05010G15KT 10SM SCT110 BKN200 M06/M11 A3000

More Conditions Fewer Conditions

10-Day Weather Forecast

Almanac

Astronomy

Jan. 25, 2015 Rise Set
Actual Time
Civil Twilight
Nautical Twilight
Astronomical Twilight
Moon
Length of Visible Light
Length of Day
Tomorrow will be .
, % of the Moon is Illuminated

Today's Extremes

State Highs State Lows

Community

WunderPhotos

Upload Photos

1,789,939 photos uploaded!

WunderBlogs® & News

Nearby

Air Quality

  Air Quality AQ Index Pollutant
Not available.

Snow Depth

Station Depth Elevation

Earthquake Activity

City Distance Mag. Time & Date
Minimum magnitude displayed is 2.5.

Coastal Water Temperatures

Place Temperature

Nearby Weather Stations